sensor_id;sensor_type;location;lat;lon;timestamp;P1;durP1;ratioP1;P2;durP2;ratioP2
37131;SDS011;23035;50.032;21.978;2023-09-19T00:03:56;7.70;;;5.25;;
37131;SDS011;23035;50.032;21.978;2023-09-19T00:09:00;9.33;;;5.23;;
37131;SDS011;23035;50.032;21.978;2023-09-19T00:14:06;10.00;;;5.43;;
37131;SDS011;23035;50.032;21.978;2023-09-19T00:19:11;7.88;;;5.20;;
37131;SDS011;23035;50.032;21.978;2023-09-19T00:29:22;6.88;;;5.18;;
37131;SDS011;23035;50.032;21.978;2023-09-19T00:34:26;10.52;;;5.00;;
37131;SDS011;23035;50.032;21.978;2023-09-19T00:39:30;9.90;;;5.57;;
37131;SDS011;23035;50.032;21.978;2023-09-19T00:44:36;12.93;;;5.38;;
37131;SDS011;23035;50.032;21.978;2023-09-19T00:49:40;11.10;;;5.88;;
37131;SDS011;23035;50.032;21.978;2023-09-19T00:54:45;8.45;;;5.13;;
37131;SDS011;23035;50.032;21.978;2023-09-19T00:59:51;8.88;;;5.95;;
37131;SDS011;23035;50.032;21.978;2023-09-19T01:04:58;11.50;;;5.93;;
37131;SDS011;23035;50.032;21.978;2023-09-19T01:10:03;12.57;;;6.57;;
37131;SDS011;23035;50.032;21.978;2023-09-19T01:15:15;11.82;;;5.97;;
37131;SDS011;23035;50.032;21.978;2023-09-19T01:20:27;13.27;;;6.35;;
37131;SDS011;23035;50.032;21.978;2023-09-19T01:25:49;12.43;;;6.30;;
37131;SDS011;23035;50.032;21.978;2023-09-19T01:31:04;9.25;;;5.82;;
37131;SDS011;23035;50.032;21.978;2023-09-19T01:36:12;8.93;;;5.82;;
37131;SDS011;23035;50.032;21.978;2023-09-19T01:41:24;11.07;;;6.00;;
37131;SDS011;23035;50.032;21.978;2023-09-19T01:46:35;10.73;;;5.93;;
37131;SDS011;23035;50.032;21.978;2023-09-19T01:51:46;6.63;;;4.50;;
37131;SDS011;23035;50.032;21.978;2023-09-19T01:56:57;8.98;;;5.30;;
37131;SDS011;23035;50.032;21.978;2023-09-19T02:02:09;7.25;;;5.43;;
37131;SDS011;23035;50.032;21.978;2023-09-19T02:07:16;9.20;;;5.82;;
37131;SDS011;23035;50.032;21.978;2023-09-19T02:12:20;10.93;;;5.80;;
37131;SDS011;23035;50.032;21.978;2023-09-19T02:17:25;8.00;;;5.55;;
37131;SDS011;23035;50.032;21.978;2023-09-19T02:22:30;8.75;;;5.85;;
37131;SDS011;23035;50.032;21.978;2023-09-19T02:27:34;9.75;;;5.65;;
37131;SDS011;23035;50.032;21.978;2023-09-19T02:32:41;13.85;;;5.20;;
37131;SDS011;23035;50.032;21.978;2023-09-19T02:37:45;10.02;;;5.18;;
37131;SDS011;23035;50.032;21.978;2023-09-19T02:42:52;8.77;;;6.00;;
37131;SDS011;23035;50.032;21.978;2023-09-19T02:47:59;12.93;;;5.30;;
37131;SDS011;23035;50.032;21.978;2023-09-19T02:53:05;12.88;;;6.97;;
37131;SDS011;23035;50.032;21.978;2023-09-19T02:58:09;9.77;;;5.85;;
37131;SDS011;23035;50.032;21.978;2023-09-19T03:03:16;6.28;;;5.22;;
37131;SDS011;23035;50.032;21.978;2023-09-19T03:08:24;8.02;;;5.45;;
37131;SDS011;23035;50.032;21.978;2023-09-19T03:13:32;12.70;;;5.75;;
37131;SDS011;23035;50.032;21.978;2023-09-19T03:18:42;13.32;;;5.63;;
37131;SDS011;23035;50.032;21.978;2023-09-19T03:23:49;12.93;;;7.28;;
37131;SDS011;23035;50.032;21.978;2023-09-19T03:28:57;8.30;;;5.82;;
37131;SDS011;23035;50.032;21.978;2023-09-19T03:34:06;10.52;;;5.82;;
37131;SDS011;23035;50.032;21.978;2023-09-19T03:39:13;7.03;;;5.90;;
37131;SDS011;23035;50.032;21.978;2023-09-19T03:44:21;12.80;;;8.10;;
37131;SDS011;23035;50.032;21.978;2023-09-19T03:49:30;9.68;;;8.68;;
37131;SDS011;23035;50.032;21.978;2023-09-19T03:54:38;13.30;;;9.75;;
37131;SDS011;23035;50.032;21.978;2023-09-19T03:59:47;14.25;;;10.98;;
37131;SDS011;23035;50.032;21.978;2023-09-19T04:04:59;18.88;;;13.65;;
37131;SDS011;23035;50.032;21.978;2023-09-19T04:10:07;19.48;;;12.77;;
37131;SDS011;23035;50.032;21.978;2023-09-19T04:15:16;14.98;;;11.10;;
37131;SDS011;23035;50.032;21.978;2023-09-19T04:20:25;20.23;;;12.68;;
37131;SDS011;23035;50.032;21.978;2023-09-19T04:25:32;12.93;;;10.43;;
37131;SDS011;23035;50.032;21.978;2023-09-19T04:30:39;11.65;;;8.23;;
37131;SDS011;23035;50.032;21.978;2023-09-19T04:35:46;13.98;;;8.20;;
37131;SDS011;23035;50.032;21.978;2023-09-19T04:40:56;16.48;;;12.15;;
37131;SDS011;23035;50.032;21.978;2023-09-19T04:46:04;19.55;;;9.48;;
37131;SDS011;23035;50.032;21.978;2023-09-19T04:51:13;19.15;;;9.07;;
37131;SDS011;23035;50.032;21.978;2023-09-19T04:56:21;10.32;;;7.22;;
37131;SDS011;23035;50.032;21.978;2023-09-19T05:01:30;14.32;;;7.10;;
37131;SDS011;23035;50.032;21.978;2023-09-19T05:06:39;9.52;;;6.97;;
37131;SDS011;23035;50.032;21.978;2023-09-19T05:11:50;11.57;;;6.80;;
37131;SDS011;23035;50.032;21.978;2023-09-19T05:16:57;9.75;;;6.72;;
37131;SDS011;23035;50.032;21.978;2023-09-19T05:22:06;9.40;;;6.45;;
37131;SDS011;23035;50.032;21.978;2023-09-19T05:27:13;8.40;;;6.10;;
37131;SDS011;23035;50.032;21.978;2023-09-19T05:32:22;9.98;;;6.15;;
37131;SDS011;23035;50.032;21.978;2023-09-19T05:37:31;9.10;;;5.90;;
37131;SDS011;23035;50.032;21.978;2023-09-19T05:42:37;10.65;;;6.03;;
37131;SDS011;23035;50.032;21.978;2023-09-19T05:47:45;10.10;;;6.45;;
37131;SDS011;23035;50.032;21.978;2023-09-19T05:52:54;8.55;;;6.15;;
37131;SDS011;23035;50.032;21.978;2023-09-19T05:58:02;8.63;;;5.57;;
37131;SDS011;23035;50.032;21.978;2023-09-19T06:03:10;10.52;;;5.80;;
37131;SDS011;23035;50.032;21.978;2023-09-19T06:08:20;8.15;;;5.63;;
37131;SDS011;23035;50.032;21.978;2023-09-19T06:13:31;11.07;;;5.55;;
37131;SDS011;23035;50.032;21.978;2023-09-19T06:18:38;8.80;;;6.43;;
37131;SDS011;23035;50.032;21.978;2023-09-19T06:23:48;8.00;;;5.32;;
37131;SDS011;23035;50.032;21.978;2023-09-19T06:28:54;8.85;;;5.95;;
37131;SDS011;23035;50.032;21.978;2023-09-19T06:34:01;7.75;;;5.57;;
37131;SDS011;23035;50.032;21.978;2023-09-19T06:39:10;9.98;;;5.30;;
37131;SDS011;23035;50.032;21.978;2023-09-19T06:44:16;8.77;;;5.63;;
37131;SDS011;23035;50.032;21.978;2023-09-19T06:49:23;9.60;;;6.18;;
37131;SDS011;23035;50.032;21.978;2023-09-19T06:54:32;9.63;;;5.18;;
37131;SDS011;23035;50.032;21.978;2023-09-19T06:59:40;11.70;;;6.85;;
37131;SDS011;23035;50.032;21.978;2023-09-19T07:04:49;11.02;;;6.28;;
37131;SDS011;23035;50.032;21.978;2023-09-19T07:09:58;12.48;;;6.03;;
37131;SDS011;23035;50.032;21.978;2023-09-19T07:15:05;9.93;;;5.28;;
37131;SDS011;23035;50.032;21.978;2023-09-19T07:20:13;12.48;;;6.60;;
37131;SDS011;23035;50.032;21.978;2023-09-19T07:25:23;7.40;;;4.90;;
37131;SDS011;23035;50.032;21.978;2023-09-19T07:30:30;7.55;;;4.57;;
37131;SDS011;23035;50.032;21.978;2023-09-19T07:35:38;7.43;;;4.10;;
37131;SDS011;23035;50.032;21.978;2023-09-19T07:40:47;7.22;;;4.05;;
37131;SDS011;23035;50.032;21.978;2023-09-19T07:45:56;8.00;;;4.72;;
37131;SDS011;23035;50.032;21.978;2023-09-19T07:51:05;9.07;;;4.40;;
37131;SDS011;23035;50.032;21.978;2023-09-19T07:56:14;5.25;;;4.10;;
37131;SDS011;23035;50.032;21.978;2023-09-19T08:01:22;8.27;;;4.90;;
37131;SDS011;23035;50.032;21.978;2023-09-19T08:06:32;8.88;;;5.55;;
37131;SDS011;23035;50.032;21.978;2023-09-19T08:11:41;8.45;;;5.40;;
37131;SDS011;23035;50.032;21.978;2023-09-19T08:16:50;15.27;;;5.95;;
37131;SDS011;23035;50.032;21.978;2023-09-19T08:22:02;8.68;;;5.40;;
37131;SDS011;23035;50.032;21.978;2023-09-19T08:27:11;8.48;;;6.20;;
37131;SDS011;23035;50.032;21.978;2023-09-19T08:32:18;10.60;;;6.47;;
37131;SDS011;23035;50.032;21.978;2023-09-19T08:37:29;10.50;;;6.20;;
37131;SDS011;23035;50.032;21.978;2023-09-19T08:42:51;7.47;;;6.03;;
37131;SDS011;23035;50.032;21.978;2023-09-19T08:48:02;14.95;;;6.50;;
37131;SDS011;23035;50.032;21.978;2023-09-19T08:53:31;12.40;;;6.82;;
37131;SDS011;23035;50.032;21.978;2023-09-19T08:58:50;8.68;;;5.75;;
37131;SDS011;23035;50.032;21.978;2023-09-19T09:04:03;9.32;;;5.20;;
37131;SDS011;23035;50.032;21.978;2023-09-19T09:09:17;7.93;;;5.50;;
37131;SDS011;23035;50.032;21.978;2023-09-19T09:14:28;7.10;;;5.85;;
37131;SDS011;23035;50.032;21.978;2023-09-19T09:19:35;10.65;;;5.90;;
37131;SDS011;23035;50.032;21.978;2023-09-19T09:24:51;8.73;;;5.97;;
37131;SDS011;23035;50.032;21.978;2023-09-19T09:30:01;9.55;;;5.38;;
37131;SDS011;23035;50.032;21.978;2023-09-19T09:35:09;9.63;;;5.35;;
37131;SDS011;23035;50.032;21.978;2023-09-19T09:40:19;8.90;;;6.00;;
37131;SDS011;23035;50.032;21.978;2023-09-19T09:45:41;8.00;;;5.72;;
37131;SDS011;23035;50.032;21.978;2023-09-19T09:50:53;12.43;;;5.80;;
37131;SDS011;23035;50.032;21.978;2023-09-19T09:56:01;11.40;;;5.95;;
37131;SDS011;23035;50.032;21.978;2023-09-19T10:01:12;9.25;;;5.82;;
37131;SDS011;23035;50.032;21.978;2023-09-19T10:06:18;12.05;;;5.75;;
37131;SDS011;23035;50.032;21.978;2023-09-19T10:11:37;11.80;;;8.32;;
37131;SDS011;23035;50.032;21.978;2023-09-19T10:16:48;14.05;;;12.55;;
37131;SDS011;23035;50.032;21.978;2023-09-19T10:21:53;14.95;;;13.02;;
37131;SDS011;23035;50.032;21.978;2023-09-19T10:27:00;12.77;;;11.55;;
37131;SDS011;23035;50.032;21.978;2023-09-19T10:32:11;17.42;;;12.57;;
37131;SDS011;23035;50.032;21.978;2023-09-19T10:37:24;14.23;;;11.20;;
37131;SDS011;23035;50.032;21.978;2023-09-19T10:42:37;11.75;;;10.55;;
37131;SDS011;23035;50.032;21.978;2023-09-19T10:47:50;11.75;;;10.70;;
37131;SDS011;23035;50.032;21.978;2023-09-19T10:52:59;11.57;;;10.57;;
37131;SDS011;23035;50.032;21.978;2023-09-19T10:58:29;13.35;;;11.95;;
37131;SDS011;23035;50.032;21.978;2023-09-19T11:03:44;12.38;;;11.07;;
37131;SDS011;23035;50.032;21.978;2023-09-19T11:09:01;11.43;;;10.52;;
37131;SDS011;23035;50.032;21.978;2023-09-19T11:14:39;11.68;;;10.57;;
37131;SDS011;23035;50.032;21.978;2023-09-19T11:30:54;9.18;;;7.97;;
37131;SDS011;23035;50.032;21.978;2023-09-19T11:36:05;8.00;;;7.15;;
37131;SDS011;23035;50.032;21.978;2023-09-19T11:46:53;6.30;;;5.68;;
37131;SDS011;23035;50.032;21.978;2023-09-19T11:52:05;5.97;;;5.47;;
37131;SDS011;23035;50.032;21.978;2023-09-19T11:57:13;6.75;;;6.05;;
37131;SDS011;23035;50.032;21.978;2023-09-19T12:02:30;7.10;;;6.50;;
37131;SDS011;23035;50.032;21.978;2023-09-19T12:07:47;8.27;;;7.22;;
37131;SDS011;23035;50.032;21.978;2023-09-19T12:12:54;9.52;;;8.65;;
37131;SDS011;23035;50.032;21.978;2023-09-19T12:18:03;8.43;;;7.72;;
37131;SDS011;23035;50.032;21.978;2023-09-19T12:23:13;8.00;;;7.30;;
37131;SDS011;23035;50.032;21.978;2023-09-19T12:28:21;9.07;;;8.30;;
37131;SDS011;23035;50.032;21.978;2023-09-19T12:33:31;7.68;;;7.18;;
37131;SDS011;23035;50.032;21.978;2023-09-19T12:38:41;9.23;;;8.40;;
37131;SDS011;23035;50.032;21.978;2023-09-19T12:43:54;9.68;;;8.85;;
37131;SDS011;23035;50.032;21.978;2023-09-19T12:49:17;8.82;;;8.02;;
37131;SDS011;23035;50.032;21.978;2023-09-19T12:54:23;8.50;;;7.70;;
37131;SDS011;23035;50.032;21.978;2023-09-19T12:59:32;10.35;;;8.82;;
37131;SDS011;23035;50.032;21.978;2023-09-19T13:04:51;9.40;;;8.60;;
37131;SDS011;23035;50.032;21.978;2023-09-19T13:10:06;7.78;;;6.93;;
37131;SDS011;23035;50.032;21.978;2023-09-19T13:15:14;8.20;;;6.68;;
37131;SDS011;23035;50.032;21.978;2023-09-19T13:20:24;16.35;;;6.68;;
37131;SDS011;23035;50.032;21.978;2023-09-19T13:25:33;7.60;;;6.80;;
37131;SDS011;23035;50.032;21.978;2023-09-19T13:30:40;9.48;;;7.22;;
37131;SDS011;23035;50.032;21.978;2023-09-19T13:35:49;9.35;;;6.57;;
37131;SDS011;23035;50.032;21.978;2023-09-19T13:40:55;8.98;;;6.00;;
37131;SDS011;23035;50.032;21.978;2023-09-19T13:46:00;9.88;;;6.88;;
37131;SDS011;23035;50.032;21.978;2023-09-19T13:51:05;16.45;;;7.15;;
37131;SDS011;23035;50.032;21.978;2023-09-19T13:56:10;10.55;;;6.95;;
37131;SDS011;23035;50.032;21.978;2023-09-19T14:01:16;9.05;;;7.05;;
37131;SDS011;23035;50.032;21.978;2023-09-19T14:06:21;9.90;;;8.73;;
37131;SDS011;23035;50.032;21.978;2023-09-19T14:11:27;12.10;;;7.30;;
37131;SDS011;23035;50.032;21.978;2023-09-19T14:16:31;13.20;;;9.20;;
